CTN4Z LDPL-LDZA
Flight info
| Callsign | CTN4Z |
|---|---|
| Flight time | 0h 25m |
| Altitude | 15000 |
| Route | RJK T742 KOTOR |
| Aircraft | A20N/M-SDE2E3FGHIRWXY/LB1 |
Departure
| Time | 2026-04-29 06:19 |
|---|---|
| Airport | Pula Airport (LDPL) |
Arrival
| Time | 2026-04-29 06:45 |
|---|---|
| Airport | Zagreb Franjo Tuđman International Airport (LDZA) |
| Time | Latitude | Longitude | Altitude | Speed | Heading |
|---|---|---|---|---|---|
| 2026-04-29 05:57 | 44.89658 | 13.92515 | 219 ft | 0 kts | 320° |
| 2026-04-29 06:14 | 44.89661 | 13.92512 | 219 ft | 1 kts | 321° |
| 2026-04-29 06:14 | 44.89670 | 13.92491 | 219 ft | 3 kts | 285° |
| 2026-04-29 06:15 | 44.89650 | 13.92464 | 218 ft | 6 kts | 190° |
| 2026-04-29 06:15 | 44.89596 | 13.92451 | 217 ft | 9 kts | 208° |
| 2026-04-29 06:15 | 44.89576 | 13.92352 | 214 ft | 12 kts | 266° |
| 2026-04-29 06:15 | 44.89571 | 13.92211 | 211 ft | 16 kts | 268° |
| 2026-04-29 06:16 | 44.89568 | 13.92032 | 206 ft | 19 kts | 268° |
| 2026-04-29 06:16 | 44.89564 | 13.91827 | 200 ft | 20 kts | 268° |
| 2026-04-29 06:16 | 44.89560 | 13.91619 | 196 ft | 22 kts | 269° |
| 2026-04-29 06:16 | 44.89556 | 13.91419 | 192 ft | 19 kts | 268° |
| 2026-04-29 06:17 | 44.89552 | 13.91223 | 188 ft | 21 kts | 268° |
| 2026-04-29 06:17 | 44.89547 | 13.91010 | 187 ft | 17 kts | 268° |
| 2026-04-29 06:17 | 44.89544 | 13.90830 | 185 ft | 19 kts | 269° |
| 2026-04-29 06:17 | 44.89535 | 13.90638 | 184 ft | 20 kts | 251° |
| 2026-04-29 06:18 | 44.89445 | 13.90483 | 178 ft | 18 kts | 227° |
| 2026-04-29 06:18 | 44.89354 | 13.90381 | 176 ft | 15 kts | 173° |
| 2026-04-29 06:18 | 44.89318 | 13.90482 | 177 ft | 0 kts | 89° |
| 2026-04-29 06:18 | 44.89318 | 13.90492 | 177 ft | 4 kts | 89° |
| 2026-04-29 06:19 | 44.89325 | 13.90874 | 181 ft | 75 kts | 89° |
| 2026-04-29 06:19 | 44.89351 | 13.91910 | 198 ft | 136 kts | 88° |
| 2026-04-29 06:19 | 44.89371 | 13.93450 | 423 ft | 167 kts | 88° |
| 2026-04-29 06:19 | 44.89382 | 13.95058 | 1140 ft | 167 kts | 88° |
| 2026-04-29 06:20 | 44.89394 | 13.96635 | 1955 ft | 163 kts | 89° |
| 2026-04-29 06:20 | 44.89407 | 13.98206 | 2722 ft | 162 kts | 89° |
| 2026-04-29 06:20 | 44.89425 | 13.99767 | 3358 ft | 166 kts | 88° |
| 2026-04-29 06:20 | 44.89523 | 14.01466 | 3826 ft | 183 kts | 77° |
| 2026-04-29 06:21 | 44.90200 | 14.03048 | 4260 ft | 203 kts | 41° |
| 2026-04-29 06:21 | 44.91566 | 14.03836 | 4711 ft | 224 kts | 6° |
| 2026-04-29 06:21 | 44.93171 | 14.03812 | 5145 ft | 245 kts | 4° |
| 2026-04-29 06:21 | 44.94833 | 14.04461 | 5834 ft | 253 kts | 27° |
| 2026-04-29 06:22 | 44.96370 | 14.05687 | 6512 ft | 256 kts | 31° |
| 2026-04-29 06:22 | 44.97890 | 14.06982 | 6897 ft | 258 kts | 31° |
| 2026-04-29 06:22 | 44.99452 | 14.08265 | 6991 ft | 259 kts | 30° |
| 2026-04-29 06:22 | 45.01014 | 14.09501 | 7001 ft | 258 kts | 29° |
| 2026-04-29 06:23 | 45.02594 | 14.10675 | 7004 ft | 258 kts | 21° |
| 2026-04-29 06:23 | 45.04324 | 14.11282 | 7014 ft | 260 kts | 3° |
| 2026-04-29 06:23 | 45.06184 | 14.11271 | 7266 ft | 277 kts | 356° |
| 2026-04-29 06:23 | 45.08135 | 14.11135 | 7994 ft | 286 kts | 356° |
| 2026-04-29 06:24 | 45.10116 | 14.10996 | 8900 ft | 288 kts | 355° |
| 2026-04-29 06:24 | 45.12136 | 14.10870 | 9752 ft | 292 kts | 356° |
| 2026-04-29 06:24 | 45.14147 | 14.11161 | 10506 ft | 301 kts | 15° |
| 2026-04-29 06:24 | 45.16032 | 14.12571 | 10972 ft | 321 kts | 39° |
| 2026-04-29 06:25 | 45.17459 | 14.15087 | 11338 ft | 341 kts | 63° |
| 2026-04-29 06:25 | 45.18123 | 14.18381 | 11710 ft | 359 kts | 81° |
| 2026-04-29 06:25 | 45.18486 | 14.21913 | 12311 ft | 368 kts | 81° |
| 2026-04-29 06:25 | 45.18860 | 14.25527 | 13026 ft | 373 kts | 81° |
| 2026-04-29 06:26 | 45.19253 | 14.29146 | 13758 ft | 377 kts | 80° |
| 2026-04-29 06:26 | 45.19669 | 14.32841 | 14455 ft | 381 kts | 79° |
| 2026-04-29 06:26 | 45.20090 | 14.36504 | 14907 ft | 384 kts | 79° |
| 2026-04-29 06:26 | 45.20524 | 14.40242 | 15082 ft | 385 kts | 79° |
| 2026-04-29 06:27 | 45.20955 | 14.43969 | 15086 ft | 384 kts | 79° |
| 2026-04-29 06:27 | 45.21388 | 14.47726 | 15091 ft | 383 kts | 79° |
| 2026-04-29 06:27 | 45.21814 | 14.51433 | 15095 ft | 384 kts | 79° |
| 2026-04-29 06:27 | 45.22275 | 14.55156 | 15098 ft | 384 kts | 76° |
| 2026-04-29 06:28 | 45.22890 | 14.58798 | 15103 ft | 382 kts | 72° |
| 2026-04-29 06:28 | 45.23658 | 14.62424 | 15108 ft | 382 kts | 70° |
| 2026-04-29 06:28 | 45.24447 | 14.65983 | 15110 ft | 382 kts | 71° |
| 2026-04-29 06:28 | 45.25245 | 14.69570 | 15042 ft | 382 kts | 71° |
| 2026-04-29 06:29 | 45.26038 | 14.73147 | 14818 ft | 380 kts | 71° |
| 2026-04-29 06:29 | 45.26828 | 14.76734 | 14581 ft | 379 kts | 71° |
| 2026-04-29 06:29 | 45.27612 | 14.80300 | 14304 ft | 377 kts | 71° |
| 2026-04-29 06:29 | 45.28385 | 14.83828 | 14089 ft | 376 kts | 71° |
| 2026-04-29 06:30 | 45.29153 | 14.87344 | 13845 ft | 374 kts | 71° |
| 2026-04-29 06:30 | 45.30683 | 14.94370 | 13189 ft | 371 kts | 71° |
| 2026-04-29 06:30 | 45.31436 | 14.97842 | 12747 ft | 368 kts | 71° |
| 2026-04-29 06:31 | 45.32182 | 15.01281 | 12316 ft | 366 kts | 72° |
| 2026-04-29 06:31 | 45.32924 | 15.04714 | 11863 ft | 363 kts | 72° |
| 2026-04-29 06:31 | 45.33656 | 15.08108 | 11414 ft | 360 kts | 72° |
| 2026-04-29 06:31 | 45.34383 | 15.11479 | 10944 ft | 358 kts | 72° |
| 2026-04-29 06:32 | 45.35106 | 15.14838 | 10578 ft | 352 kts | 72° |
| 2026-04-29 06:32 | 45.35810 | 15.18122 | 10364 ft | 341 kts | 72° |
| 2026-04-29 06:32 | 45.36484 | 15.21267 | 10235 ft | 327 kts | 72° |
| 2026-04-29 06:32 | 45.37132 | 15.24298 | 10114 ft | 315 kts | 72° |
| 2026-04-29 06:33 | 45.37750 | 15.27196 | 10002 ft | 303 kts | 71° |
| 2026-04-29 06:33 | 45.38353 | 15.30019 | 9752 ft | 297 kts | 72° |
| 2026-04-29 06:33 | 45.38954 | 15.32834 | 9400 ft | 295 kts | 72° |
| 2026-04-29 06:33 | 45.39548 | 15.35616 | 9057 ft | 293 kts | 72° |
| 2026-04-29 06:34 | 45.40132 | 15.38358 | 8739 ft | 290 kts | 72° |
| 2026-04-29 06:34 | 45.40714 | 15.41097 | 8398 ft | 288 kts | 72° |
| 2026-04-29 06:34 | 45.41288 | 15.43800 | 8072 ft | 285 kts | 72° |
| 2026-04-29 06:34 | 45.41852 | 15.46465 | 7763 ft | 283 kts | 72° |
| 2026-04-29 06:35 | 45.42413 | 15.49123 | 7449 ft | 279 kts | 72° |
| 2026-04-29 06:35 | 45.42965 | 15.51733 | 7142 ft | 276 kts | 73° |
| 2026-04-29 06:35 | 45.43514 | 15.54330 | 6838 ft | 272 kts | 73° |
| 2026-04-29 06:35 | 45.44162 | 15.56854 | 6534 ft | 269 kts | 64° |
| 2026-04-29 06:36 | 45.45100 | 15.59119 | 6215 ft | 267 kts | 54° |
| 2026-04-29 06:36 | 45.46185 | 15.61230 | 5906 ft | 264 kts | 53° |
| 2026-04-29 06:36 | 45.47295 | 15.63322 | 5597 ft | 261 kts | 52° |
| 2026-04-29 06:36 | 45.48375 | 15.65358 | 5292 ft | 259 kts | 53° |
| 2026-04-29 06:37 | 45.49462 | 15.67423 | 4979 ft | 257 kts | 54° |
| 2026-04-29 06:37 | 45.50508 | 15.69420 | 4677 ft | 255 kts | 54° |
| 2026-04-29 06:37 | 45.51559 | 15.71435 | 4379 ft | 253 kts | 54° |
| 2026-04-29 06:37 | 45.52613 | 15.73458 | 4080 ft | 250 kts | 53° |
| 2026-04-29 06:38 | 45.53629 | 15.75405 | 3966 ft | 242 kts | 53° |
| 2026-04-29 06:38 | 45.54639 | 15.77122 | 3896 ft | 232 kts | 47° |
| 2026-04-29 06:38 | 45.55755 | 15.78745 | 3690 ft | 226 kts | 45° |
| 2026-04-29 06:38 | 45.56850 | 15.80312 | 3494 ft | 220 kts | 46° |
| 2026-04-29 06:39 | 45.57904 | 15.81858 | 3309 ft | 214 kts | 47° |
| 2026-04-29 06:39 | 45.58919 | 15.83384 | 3132 ft | 207 kts | 47° |
| 2026-04-29 06:39 | 45.59881 | 15.84851 | 2982 ft | 199 kts | 47° |
| 2026-04-29 06:39 | 45.60797 | 15.86256 | 3041 ft | 184 kts | 47° |
| 2026-04-29 06:40 | 45.61608 | 15.87505 | 2985 ft | 162 kts | 47° |
| 2026-04-29 06:40 | 45.62318 | 15.88596 | 2964 ft | 138 kts | 47° |
| 2026-04-29 06:40 | 45.62961 | 15.89584 | 2957 ft | 134 kts | 47° |
| 2026-04-29 06:40 | 45.63590 | 15.90550 | 2967 ft | 133 kts | 47° |
| 2026-04-29 06:41 | 45.64226 | 15.91526 | 2907 ft | 133 kts | 47° |
| 2026-04-29 06:41 | 45.64860 | 15.92497 | 2735 ft | 133 kts | 47° |
| 2026-04-29 06:41 | 45.65487 | 15.93457 | 2555 ft | 133 kts | 47° |
| 2026-04-29 06:41 | 45.66112 | 15.94412 | 2378 ft | 132 kts | 47° |
| 2026-04-29 06:42 | 45.66739 | 15.95369 | 2201 ft | 132 kts | 46° |
| 2026-04-29 06:42 | 45.67371 | 15.96335 | 2021 ft | 131 kts | 46° |
| 2026-04-29 06:42 | 45.67989 | 15.97277 | 1847 ft | 131 kts | 46° |
| 2026-04-29 06:42 | 45.68614 | 15.98230 | 1673 ft | 131 kts | 46° |
| 2026-04-29 06:43 | 45.69233 | 15.99173 | 1498 ft | 130 kts | 46° |
| 2026-04-29 06:43 | 45.69854 | 16.00120 | 1325 ft | 130 kts | 46° |
| 2026-04-29 06:43 | 45.70472 | 16.01061 | 1151 ft | 130 kts | 46° |
| 2026-04-29 06:43 | 45.71086 | 16.01996 | 978 ft | 129 kts | 46° |
| 2026-04-29 06:44 | 45.71704 | 16.02938 | 804 ft | 129 kts | 46° |
| 2026-04-29 06:44 | 45.72317 | 16.03876 | 627 ft | 128 kts | 46° |
| 2026-04-29 06:44 | 45.72924 | 16.04801 | 464 ft | 127 kts | 45° |
| 2026-04-29 06:44 | 45.73523 | 16.05714 | 351 ft | 122 kts | 47° |
| 2026-04-29 06:45 | 45.74011 | 16.06443 | 350 ft | 84 kts | 46° |
| 2026-04-29 06:45 | 45.74384 | 16.07016 | 347 ft | 72 kts | 47° |
| 2026-04-29 06:45 | 45.74632 | 16.07392 | 346 ft | 29 kts | 47° |
| 2026-04-29 06:45 | 45.74646 | 16.07567 | 348 ft | 18 kts | 134° |
| 2026-04-29 06:46 | 45.74553 | 16.07683 | 350 ft | 17 kts | 139° |
| 2026-04-29 06:46 | 45.74462 | 16.07804 | 350 ft | 17 kts | 137° |
| 2026-04-29 06:46 | 45.74383 | 16.07902 | 351 ft | 13 kts | 152° |
| 2026-04-29 06:46 | 45.74329 | 16.07956 | 352 ft | 6 kts | 135° |
| 2026-04-29 06:47 | 45.74303 | 16.07991 | 353 ft | 2 kts | 137° |
| 2026-04-29 06:47 | 45.74290 | 16.08009 | 353 ft | 3 kts | 137° |
| 2026-04-29 06:47 | 45.74287 | 16.08012 | 353 ft | 0 kts | 137° |
| 2026-04-29 06:47 | 45.74285 | 16.08014 | 353 ft | 0 kts | 137° |